Terminal Aerodrome Forecast
Issued by NWS Boston, MA

Home | Current Version | Previous Version | Text Only | Print | Product List | Glossary On
Versions: 1 2 3 4 5 6 7 8 9 10 11 12 13 14 15 16 17 18 19 20 21 22
000
FTUS41 KBOX 180712 AAE
TAFORH
TAF AMD
KORH 180712Z 1807/1906 27006KT P6SM FEW060
     FM181400 29010KT P6SM FEW250
     FM181800 31009KT P6SM SKC
     FM190400 28007KT P6SM SCT250=

USA.gov is the U.S. government's official web portal to all federal, state and local government web resources and services.